Time;durP1;ratioP1;P1;durP2;ratioP2;P2;SDS_P1;SDS_P2;PMS_P1;PMS_P2;Temp;Humidity;BMP_temperature;BMP_pressure;BME280_temperature;BME280_humidity;BME280_pressure;Samples;Min_cycle;Max_cycle;Signal;HPM_P1;HPM_P2
2023/06/04 00:07:02;;;;;;;;;;;;;;;13.65;100.00;97586.06;18565722;31;19944;-51
2023/06/04 00:17:04;;;;;;;;;;;;;;;13.55;100.00;97580.72;18565618;32;19961;-53
2023/06/04 00:27:08;;;;;;;;;;;;;;;13.41;100.00;97579.84;18565022;32;19970;-52
2023/06/04 00:37:10;;;;;;;;;;;;;;;13.29;100.00;97577.50;18564380;32;19999;-53
2023/06/04 00:47:16;;;;;;;;;;;;;;;13.20;100.00;97578.13;18563714;32;19976;-52
2023/06/04 00:57:18;;;;;;;;;;;;;;;13.12;100.00;97584.22;18562907;32;19948;-53
2023/06/04 01:07:21;;;;;;;;;;;;;;;13.00;100.00;97589.22;18548043;32;19995;-54
2023/06/04 01:17:37;;;;;;;;;;;;;;;12.90;100.00;97583.91;18561560;32;20340;-52
2023/06/04 01:27:40;;;;;;;;;;;;;;;12.78;100.00;97589.72;18561825;32;20373;-52
2023/06/04 01:37:42;;;;;;;;;;;;;;;12.66;100.00;97595.53;18546920;32;19956;-50
2023/06/04 01:47:44;;;;;;;;;;;;;;;12.61;100.00;97590.16;18561028;32;19992;-53
2023/06/04 01:57:50;;;;;;;;;;;;;;;12.51;100.00;97591.87;18533581;32;19961;-54
2023/06/04 02:07:52;;;;;;;;;;;;;;;12.40;100.00;97606.56;18560446;32;19961;-52
2023/06/04 02:17:58;;;;;;;;;;;;;;;12.28;100.00;97600.72;18560085;32;20013;-53
2023/06/04 02:28:01;;;;;;;;;;;;;;;12.17;100.00;97598.09;18560900;32;19944;-54
2023/06/04 02:38:03;;;;;;;;;;;;;;;12.10;100.00;97607.63;18556998;32;19960;-54
2023/06/04 02:48:06;;;;;;;;;;;;;;;11.99;100.00;97606.88;18571004;32;19999;-56
2023/06/04 02:58:08;;;;;;;;;;;;;;;11.90;100.00;97616.66;18570103;32;19956;-56
2023/06/04 03:08:11;;;;;;;;;;;;;;;11.81;100.00;97622.69;18569736;32;19988;-57
2023/06/04 03:18:13;;;;;;;;;;;;;;;11.74;100.00;97621.34;18569090;32;19960;-55
2023/06/04 03:28:15;;;;;;;;;;;;;;;11.66;100.00;97636.28;18568625;32;20004;-57
2023/06/04 03:38:18;;;;;;;;;;;;;;;11.59;100.00;97642.00;18553403;32;20497;-57
2023/06/04 03:48:20;;;;;;;;;;;;;;;11.50;100.00;97633.63;18567279;31;20012;-56
2023/06/04 03:58:23;;;;;;;;;;;;;;;11.43;100.00;97648.53;18567231;32;19985;-56
2023/06/04 04:08:30;;;;;;;;;;;;;;;11.39;100.00;97661.84;18565960;32;19989;-55
2023/06/04 04:18:35;;;;;;;;;;;;;;;11.41;100.00;97667.78;18565627;32;19952;-57
2023/06/04 04:28:38;;;;;;;;;;;;;;;11.51;100.00;97667.75;18565070;32;20008;-57
2023/06/04 04:38:40;;;;;;;;;;;;;;;11.64;100.00;97676.37;18564124;32;20332;-54
2023/06/04 04:48:42;;;;;;;;;;;;;;;11.74;100.00;97681.75;18563522;32;19953;-54
2023/06/04 04:58:45;;;;;;;;;;;;;;;11.95;100.00;97684.37;18562429;32;19996;-54
2023/06/04 05:08:47;;;;;;;;;;;;;;;12.38;100.00;97679.28;18562887;32;20272;-55
2023/06/04 05:18:51;;;;;;;;;;;;;;;12.95;100.00;97692.41;18548480;32;19949;-54
2023/06/04 05:28:53;;;;;;;;;;;;;;;13.43;100.00;97699.84;18562211;32;19983;-55
2023/06/04 05:38:59;;;;;;;;;;;;;;;13.81;100.00;97708.91;18561068;32;19979;-55
2023/06/04 05:49:02;;;;;;;;;;;;;;;14.07;100.00;97722.22;18560878;32;19948;-54
2023/06/04 05:59:05;;;;;;;;;;;;;;;14.30;100.00;97709.66;18560840;32;20230;-54
2023/06/04 06:09:08;;;;;;;;;;;;;;;14.26;100.00;97716.78;18556931;32;20311;-53
2023/06/04 06:19:11;;;;;;;;;;;;;;;14.15;100.00;97718.84;18572964;32;19967;-55
2023/06/04 06:29:13;;;;;;;;;;;;;;;14.11;100.00;97725.97;18571793;31;20340;-54
2023/06/04 06:39:16;;;;;;;;;;;;;;;14.14;100.00;97733.56;18571567;32;19952;-54
2023/06/04 06:49:18;;;;;;;;;;;;;;;14.70;100.00;97744.78;18571137;32;20060;-55
2023/06/04 06:59:21;;;;;;;;;;;;;;;15.62;100.00;97747.06;18570369;32;19956;-55
2023/06/04 07:09:24;;;;;;;;;;;;;;;16.50;100.00;97751.59;18569935;32;20246;-56
2023/06/04 07:19:26;;;;;;;;;;;;;;;17.41;100.00;97744.28;18568521;32;19952;-55
2023/06/04 07:29:29;;;;;;;;;;;;;;;18.41;100.00;97759.31;18568529;31;20406;-56
2023/06/04 07:39:31;;;;;;;;;;;;;;;18.66;100.00;97754.19;18567580;32;19948;-55
2023/06/04 07:49:34;;;;;;;;;;;;;;;19.06;100.00;97750.50;18568394;32;19948;-55
2023/06/04 07:59:45;;;;;;;;;;;;;;;19.48;100.00;97742.53;18567097;32;19990;-56
2023/06/04 08:09:47;;;;;;;;;;;;;;;20.27;92.16;97743.03;18552059;32;20302;-56
2023/06/04 08:19:50;;;;;;;;;;;;;;;20.82;94.33;97756.91;18551242;32;19982;-56
2023/06/04 08:30:13;;;;;;;;;;;;;;;20.82;84.00;97757.72;18552774;32;19972;-56
2023/06/04 08:40:35;;;;;;;;;;;;;;;20.98;81.59;97748.84;18551960;32;20000;-56
2023/06/04 08:50:40;;;;;;;;;;;;;;;21.27;82.19;97741.66;18548715;32;19952;-56
2023/06/04 09:00:42;;;;;;;;;;;;;;;21.72;83.72;97756.56;18548616;32;19960;-56
2023/06/04 09:10:49;;;;;;;;;;;;;;;22.13;84.31;97752.00;18562311;32;20280;-56
2023/06/04 09:21:01;;;;;;;;;;;;;;;22.31;79.29;97753.37;18561820;32;19952;-56
2023/06/04 09:31:07;;;;;;;;;;;;;;;22.63;72.44;97752.78;18561039;32;20287;-56
2023/06/04 09:41:11;;;;;;;;;;;;;;;22.56;73.27;97747.84;18546836;32;20282;-57
2023/06/04 09:51:20;;;;;;;;;;;;;;;22.84;72.16;97747.91;18546582;32;20001;-57
2023/06/04 10:01:26;;;;;;;;;;;;;;;23.28;72.70;97736.16;18547184;32;19953;-56
2023/06/04 10:11:35;;;;;;;;;;;;;;;23.48;72.12;97747.31;18560341;31;20000;-56
2023/06/04 10:21:38;;;;;;;;;;;;;;;23.73;68.26;97731.38;18560202;32;19993;-56
2023/06/04 10:31:42;;;;;;;;;;;;;;;23.95;67.03;97720.91;18545328;32;20372;-54
2023/06/04 10:41:46;;;;;;;;;;;;;;;24.34;60.89;97721.84;18544818;32;19992;-56
2023/06/04 10:51:51;;;;;;;;;;;;;;;24.78;65.50;97733.88;18563467;32;20008;-56
2023/06/04 11:02:04;;;;;;;;;;;;;;;24.96;55.39;97729.50;18570484;32;19962;-55
2023/06/04 11:12:08;;;;;;;;;;;;;;;25.17;56.51;97726.38;18569390;32;19965;-56
2023/06/04 11:22:11;;;;;;;;;;;;;;;25.69;59.64;97720.59;18555038;32;19979;-56
2023/06/04 11:32:21;;;;;;;;;;;;;;;25.70;53.07;97713.87;18568482;32;19971;-56
2023/06/04 11:42:24;;;;;;;;;;;;;;;25.80;52.58;97715.25;18503732;32;19956;-54
2023/06/04 11:52:27;;;;;;;;;;;;;;;26.25;52.09;97710.03;18502898;32;19968;-56
2023/06/04 12:02:30;;;;;;;;;;;;;;;26.66;52.89;97699.91;18487427;32;20329;-56
2023/06/04 12:12:35;;;;;;;;;;;;;;;27.30;50.25;97693.53;18487213;32;19985;-56
2023/06/04 12:22:47;;;;;;;;;;;;;;;27.76;51.49;97694.38;18486453;32;19973;-56
2023/06/04 12:32:50;;;;;;;;;;;;;;;28.61;47.43;97689.78;18502307;31;20291;-56
2023/06/04 12:42:54;;;;;;;;;;;;;;;28.88;44.50;97682.00;18564328;32;19965;-55
2023/06/04 12:52:57;;;;;;;;;;;;;;;29.31;45.69;97692.47;18549167;31;19965;-54
2023/06/04 13:03:01;;;;;;;;;;;;;;;29.45;40.94;97680.56;18563090;32;19975;-56
2023/06/04 13:13:04;;;;;;;;;;;;;;;29.80;41.79;97684.56;18562034;32;19968;-55
2023/06/04 13:23:08;;;;;;;;;;;;;;;30.18;44.93;97676.59;18562375;32;19957;-55
2023/06/04 13:33:11;;;;;;;;;;;;;;;30.13;39.21;97672.22;18561300;31;19979;-56
2023/06/04 13:43:16;;;;;;;;;;;;;;;29.98;42.87;97657.50;18546774;31;19978;-56
2023/06/04 13:53:20;;;;;;;;;;;;;;;30.01;42.11;97662.28;18561177;32;19998;-56
2023/06/04 14:03:24;;;;;;;;;;;;;;;30.44;39.65;97655.84;18546286;32;19953;-56
2023/06/04 14:13:27;;;;;;;;;;;;;;;30.76;38.72;97655.69;18560287;32;19952;-56
2023/06/04 14:23:30;;;;;;;;;;;;;;;31.20;36.68;97649.91;18562137;32;20267;-56
2023/06/04 14:33:35;;;;;;;;;;;;;;;31.41;37.88;97638.59;18558045;31;19971;-55
2023/06/04 14:43:40;;;;;;;;;;;;;;;31.42;35.93;97631.00;18571481;32;19961;-55
2023/06/04 14:53:43;;;;;;;;;;;;;;;31.10;36.28;97618.06;18570891;32;19975;-55
2023/06/04 15:03:47;;;;;;;;;;;;;;;29.89;38.29;97601.38;18570557;32;19968;-54
2023/06/04 15:13:52;;;;;;;;;;;;;;;28.79;39.82;97603.66;18556095;32;19972;-56
2023/06/04 15:23:55;;;;;;;;;;;;;;;28.03;39.73;97595.75;18569208;32;19949;-56
2023/06/04 15:33:59;;;;;;;;;;;;;;;27.55;40.72;97618.03;18567856;31;19953;-54
2023/06/04 15:44:03;;;;;;;;;;;;;;;27.04;43.37;97609.22;18567828;32;19957;-54
2023/06/04 15:54:06;;;;;;;;;;;;;;;27.10;42.09;97606.09;18567393;32;19968;-56
2023/06/04 16:04:14;;;;;;;;;;;;;;;26.84;44.81;97624.47;18566927;32;19960;-55
2023/06/04 16:14:18;;;;;;;;;;;;;;;26.07;42.97;97612.78;18566094;32;20032;-53
2023/06/04 16:24:21;;;;;;;;;;;;;;;25.51;46.22;97601.25;18565437;32;19953;-54
2023/06/04 16:34:24;;;;;;;;;;;;;;;25.24;45.14;97595.62;18550167;31;20289;-53
2023/06/04 16:44:29;;;;;;;;;;;;;;;25.49;44.08;97615.47;18564492;32;20282;-54
2023/06/04 16:54:32;;;;;;;;;;;;;;;25.63;43.42;97647.31;18562819;32;20310;-54
2023/06/04 17:04:38;;;;;;;;;;;;;;;24.83;44.18;97645.06;18549518;32;19965;-55
2023/06/04 17:14:41;;;;;;;;;;;;;;;24.19;46.57;97642.56;18562535;32;20325;-55
2023/06/04 17:24:44;;;;;;;;;;;;;;;23.92;50.27;97642.34;18561864;32;19967;-55
2023/06/04 17:34:47;;;;;;;;;;;;;;;24.47;48.45;97642.34;18561319;32;20419;-56
2023/06/04 17:44:50;;;;;;;;;;;;;;;24.58;47.54;97642.56;18561565;32;19979;-54
2023/06/04 17:54:54;;;;;;;;;;;;;;;24.41;48.63;97637.50;18560714;32;19952;-55
2023/06/04 18:04:57;;;;;;;;;;;;;;;25.05;49.16;97651.81;18571500;32;19940;-54
2023/06/04 18:15:00;;;;;;;;;;;;;;;28.58;39.74;97656.00;18573121;31;20051;-55
2023/06/04 18:25:03;;;;;;;;;;;;;;;25.96;43.61;97643.88;18545941;32;19953;-54
2023/06/04 18:35:06;;;;;;;;;;;;;;;24.19;50.03;97639.78;18557446;31;19960;-55
2023/06/04 18:45:10;;;;;;;;;;;;;;;23.19;59.00;97630.69;18557843;32;19968;-54
2023/06/04 18:55:13;;;;;;;;;;;;;;;22.47;64.88;97634.22;18557162;32;19956;-54
2023/06/04 19:05:17;;;;;;;;;;;;;;;21.81;73.20;97617.69;18570417;32;20287;-53
2023/06/04 19:15:20;;;;;;;;;;;;;;;21.23;77.48;97619.72;18568729;32;19953;-54
2023/06/04 19:25:23;;;;;;;;;;;;;;;20.57;87.23;97627.62;18569218;32;20308;-52
2023/06/04 19:35:27;;;;;;;;;;;;;;;19.80;91.37;97625.13;18568691;31;20012;-49
2023/06/04 19:45:30;;;;;;;;;;;;;;;19.12;98.08;97629.44;18568104;32;20018;-54
2023/06/04 19:55:33;;;;;;;;;;;;;;;18.55;100.00;97654.31;18567454;32;19953;-53
2023/06/04 20:05:37;;;;;;;;;;;;;;;18.01;100.00;97662.84;18566752;31;19944;-51
2023/06/04 20:15:40;;;;;;;;;;;;;;;17.57;100.00;97670.88;18566108;32;19972;-54
2023/06/04 20:25:43;;;;;;;;;;;;;;;17.18;100.00;97686.13;18565812;32;19979;-54
2023/06/04 20:35:46;;;;;;;;;;;;;;;16.87;100.00;97687.66;18550057;32;19960;-52
2023/06/04 20:45:48;;;;;;;;;;;;;;;16.60;100.00;97681.19;18550269;32;19948;-53
2023/06/04 20:55:53;;;;;;;;;;;;;;;16.37;100.00;97679.56;18563354;32;19976;-54
2023/06/04 21:05:57;;;;;;;;;;;;;;;16.09;100.00;97690.56;18549366;32;19949;-53
2023/06/04 21:16:00;;;;;;;;;;;;;;;15.74;100.00;97695.59;18562677;32;19948;-52
2023/06/04 21:26:03;;;;;;;;;;;;;;;15.45;100.00;97706.78;18547831;32;19957;-50
2023/06/04 21:36:06;;;;;;;;;;;;;;;15.19;100.00;97708.03;18546413;31;19953;-51
2023/06/04 21:46:10;;;;;;;;;;;;;;;14.96;100.00;97714.44;18561302;32;19994;-53
2023/06/04 21:56:12;;;;;;;;;;;;;;;14.75;100.00;97725.66;18546436;32;19945;-52
2023/06/04 22:06:15;;;;;;;;;;;;;;;14.54;100.00;97725.94;18560535;32;19964;-50
2023/06/04 22:16:18;;;;;;;;;;;;;;;14.38;100.00;97729.97;18560794;32;20364;-50
2023/06/04 22:26:21;;;;;;;;;;;;;;;14.20;100.00;97726.94;18560152;32;19940;-53
2023/06/04 22:36:40;;;;;;;;;;;;;;;14.03;100.00;97732.03;18559515;31;19953;-53
2023/06/04 22:46:43;;;;;;;;;;;;;;;13.87;100.00;97736.87;18563562;31;20367;-53
2023/06/04 22:56:46;;;;;;;;;;;;;;;13.69;100.00;97741.12;18571247;32;19965;-52
2023/06/04 23:06:49;;;;;;;;;;;;;;;13.50;100.00;97735.66;18570536;32;19957;-53
2023/06/04 23:16:55;;;;;;;;;;;;;;;13.37;100.00;97729.81;18569632;32;19956;-53
2023/06/04 23:26:58;;;;;;;;;;;;;;;13.25;100.00;97733.94;18569499;32;20356;-53
2023/06/04 23:37:00;;;;;;;;;;;;;;;13.10;100.00;97722.16;18553926;31;20299;-53
2023/06/04 23:47:03;;;;;;;;;;;;;;;12.94;100.00;97718.75;18568233;31;19944;-53
2023/06/04 23:57:06;;;;;;;;;;;;;;;12.80;100.00;97718.59;18566820;32;19953;-49
